createdAt,value
2019-03-24T00:01:41.050Z,15.10
2019-03-24T00:04:03.106Z,13.17
2019-03-24T00:06:31.589Z,12.40
2019-03-24T00:09:00.030Z,10.90
2019-03-24T00:11:28.489Z,11.63
2019-03-24T00:13:56.955Z,9.17
2019-03-24T00:16:25.413Z,9.17
2019-03-24T00:18:53.853Z,9.67
2019-03-24T00:21:22.316Z,9.63
2019-03-24T00:23:50.775Z,8.87
2019-03-24T00:26:19.382Z,8.90
2019-03-24T00:28:47.822Z,7.70
2019-03-24T00:31:17.847Z,9.07
2019-03-24T00:33:46.290Z,8.77
2019-03-24T00:36:14.753Z,7.90
2019-03-24T00:38:43.199Z,7.67
2019-03-24T00:41:11.711Z,8.53
2019-03-24T00:43:40.258Z,7.20
2019-03-24T00:46:08.902Z,6.93
2019-03-24T00:48:37.322Z,8.57
2019-03-24T00:51:05.918Z,6.90
2019-03-24T00:53:34.375Z,8.23
2019-03-24T00:56:02.812Z,8.30
2019-03-24T00:58:31.259Z,8.33
2019-03-24T01:00:59.792Z,7.77
2019-03-24T01:03:28.214Z,8.27
2019-03-24T01:05:56.657Z,8.53
2019-03-24T01:08:25.311Z,9.83
2019-03-24T01:10:53.757Z,9.43
2019-03-24T01:13:22.333Z,8.93
2019-03-24T01:15:50.819Z,7.73
2019-03-24T01:18:19.411Z,8.40
2019-03-24T01:20:48.012Z,8.10
2019-03-24T01:23:16.514Z,8.13
2019-03-24T01:25:44.952Z,8.33
2019-03-24T01:28:13.414Z,7.10
2019-03-24T01:30:41.868Z,7.97
2019-03-24T01:33:10.320Z,7.30
2019-03-24T01:35:38.816Z,7.53
2019-03-24T01:38:07.313Z,9.63
2019-03-24T01:40:35.802Z,8.50
2019-03-24T01:43:04.330Z,7.83
2019-03-24T01:45:32.801Z,7.20
2019-03-24T01:48:01.241Z,7.37
2019-03-24T01:50:29.706Z,7.60
2019-03-24T01:52:58.183Z,7.40
2019-03-24T01:55:26.628Z,7.50
2019-03-24T01:57:55.093Z,8.73
2019-03-24T02:00:23.577Z,7.63
2019-03-24T02:02:52.094Z,7.80
2019-03-24T02:05:20.560Z,7.70
2019-03-24T02:07:49.011Z,9.37
2019-03-24T02:10:17.572Z,7.77
2019-03-24T02:12:46.024Z,8.07
2019-03-24T02:15:14.864Z,7.97
2019-03-24T02:17:43.344Z,7.13
2019-03-24T02:20:12.932Z,7.23
2019-03-24T02:22:41.514Z,6.90
2019-03-24T02:25:10.096Z,7.03
2019-03-24T02:27:38.534Z,7.93
2019-03-24T02:30:08.344Z,8.00
2019-03-24T02:32:36.894Z,8.70
2019-03-24T02:35:07.060Z,8.37
2019-03-24T02:37:36.076Z,7.23
2019-03-24T02:40:07.545Z,8.80
2019-03-24T02:42:35.983Z,7.90
2019-03-24T02:45:06.209Z,7.77
2019-03-24T02:47:34.637Z,7.60
2019-03-24T02:50:03.084Z,9.17
2019-03-24T02:52:31.545Z,7.77
2019-03-24T02:55:00.020Z,7.90
2019-03-24T02:57:28.671Z,8.07
2019-03-24T02:59:57.845Z,7.73
2019-03-24T03:02:26.354Z,8.30
2019-03-24T03:04:54.836Z,8.50
2019-03-24T03:07:23.927Z,8.30
2019-03-24T03:09:52.550Z,7.80
2019-03-24T03:12:20.997Z,8.53
2019-03-24T03:14:49.546Z,8.97
2019-03-24T03:17:17.984Z,9.00
2019-03-24T03:19:46.509Z,9.40
2019-03-24T03:22:15.733Z,9.30
2019-03-24T03:24:44.215Z,9.43
2019-03-24T03:27:12.644Z,9.50
2019-03-24T03:29:41.073Z,8.23
2019-03-24T03:32:09.513Z,9.13
2019-03-24T03:34:38.066Z,9.90
2019-03-24T03:37:06.595Z,9.67
2019-03-24T03:39:35.040Z,8.97
2019-03-24T03:42:03.602Z,9.93
2019-03-24T03:44:32.546Z,9.60
2019-03-24T03:47:00.984Z,8.73
2019-03-24T03:49:29.455Z,8.13
2019-03-24T03:51:57.897Z,10.23
2019-03-24T03:54:26.896Z,8.63
2019-03-24T03:56:55.353Z,9.77
2019-03-24T03:59:23.803Z,8.87
2019-03-24T04:01:52.320Z,9.60
2019-03-24T04:04:20.832Z,8.37
2019-03-24T04:06:49.294Z,9.00
2019-03-24T04:09:17.775Z,8.27
2019-03-24T04:11:46.202Z,8.07
2019-03-24T04:14:14.709Z,8.30
2019-03-24T04:16:43.211Z,7.97
2019-03-24T04:19:11.649Z,8.03
2019-03-24T04:21:40.072Z,8.87
2019-03-24T04:24:08.514Z,9.07
2019-03-24T04:26:37.024Z,9.27
2019-03-24T04:29:05.513Z,7.63
2019-03-24T04:31:33.944Z,8.37
2019-03-24T04:34:02.404Z,7.93
2019-03-24T04:36:30.868Z,7.50
2019-03-24T04:38:59.315Z,7.33
2019-03-24T04:41:27.846Z,9.10
2019-03-24T04:43:56.263Z,9.07
2019-03-24T04:46:24.700Z,8.40
2019-03-24T04:48:53.189Z,8.67
2019-03-24T04:51:21.667Z,9.00
2019-03-24T04:53:50.129Z,9.17
2019-03-24T04:56:18.584Z,8.20
2019-03-24T04:58:47.043Z,8.60
2019-03-24T05:01:15.491Z,8.80
2019-03-24T05:03:43.970Z,8.63
2019-03-24T05:06:12.861Z,8.07
2019-03-24T05:08:41.710Z,10.03
2019-03-24T05:11:10.154Z,9.33
2019-03-24T05:13:39.136Z,9.07
2019-03-24T05:16:07.607Z,8.40
2019-03-24T05:18:36.056Z,10.03
2019-03-24T05:21:05.290Z,7.47
2019-03-24T05:23:33.757Z,8.97
2019-03-24T05:26:02.200Z,8.00
2019-03-24T05:28:30.630Z,8.67
2019-03-24T05:30:59.074Z,9.37
2019-03-24T05:33:27.516Z,8.83
2019-03-24T05:35:56.015Z,8.47
2019-03-24T05:38:24.480Z,7.90
2019-03-24T05:40:52.959Z,8.37
2019-03-24T05:43:21.471Z,9.30
2019-03-24T05:45:49.909Z,7.40
2019-03-24T05:48:18.335Z,8.87
2019-03-24T05:50:46.778Z,8.37
2019-03-24T05:53:15.241Z,9.27
2019-03-24T05:55:43.679Z,8.90
2019-03-24T05:58:12.124Z,8.87
2019-03-24T06:00:40.562Z,9.50
2019-03-24T06:03:08.999Z,9.77
2019-03-24T06:05:37.467Z,9.53
2019-03-24T06:08:05.899Z,8.70
2019-03-24T06:10:34.343Z,9.10
2019-03-24T06:13:02.842Z,8.53
2019-03-24T06:15:31.297Z,9.50
2019-03-24T06:17:59.729Z,8.67
2019-03-24T06:20:28.262Z,8.87
2019-03-24T06:22:56.717Z,8.53
2019-03-24T06:25:25.176Z,9.60
2019-03-24T06:27:53.640Z,8.30
2019-03-24T06:30:22.170Z,8.83
2019-03-24T06:32:53.039Z,8.60
2019-03-24T06:35:21.494Z,9.33
2019-03-24T06:37:49.951Z,9.30
2019-03-24T06:40:19.809Z,11.13
2019-03-24T06:42:48.559Z,10.27
2019-03-24T06:45:27.720Z,9.70
2019-03-24T06:47:57.606Z,11.07
2019-03-24T06:50:18.742Z,10.97
2019-03-24T06:52:47.263Z,11.33
2019-03-24T06:55:15.784Z,10.17
2019-03-24T06:57:44.245Z,9.13
2019-03-24T07:00:13.129Z,10.63
2019-03-24T07:02:41.576Z,8.90
2019-03-24T07:05:10.548Z,9.37
2019-03-24T07:07:38.985Z,8.67
2019-03-24T07:10:11.359Z,8.93
2019-03-24T07:12:40.538Z,9.33
2019-03-24T07:15:09.911Z,9.33
2019-03-24T07:17:38.380Z,9.27
2019-03-24T07:20:08.295Z,7.43
2019-03-24T07:22:36.690Z,7.83
2019-03-24T07:25:06.199Z,7.97
2019-03-24T07:27:34.619Z,8.00
2019-03-24T07:30:04.795Z,7.87
2019-03-24T07:32:33.255Z,9.37
2019-03-24T07:35:01.699Z,8.23
2019-03-24T07:37:30.134Z,8.63
2019-03-24T07:40:01.783Z,8.70
2019-03-24T07:42:30.210Z,8.03
2019-03-24T07:44:58.701Z,9.47
2019-03-24T07:47:27.128Z,9.57
2019-03-24T07:49:55.580Z,9.37
2019-03-24T07:52:24.030Z,9.00
2019-03-24T07:54:52.520Z,7.70
2019-03-24T07:57:20.982Z,8.13
2019-03-24T07:59:49.454Z,7.87
2019-03-24T08:02:17.949Z,8.40
2019-03-24T08:04:46.383Z,7.47
2019-03-24T08:07:14.797Z,7.93
2019-03-24T08:09:43.269Z,7.37
2019-03-24T08:12:11.745Z,7.73
2019-03-24T08:14:40.170Z,7.30
2019-03-24T08:17:08.649Z,7.90
2019-03-24T08:19:37.079Z,7.57
2019-03-24T08:22:05.582Z,7.07
2019-03-24T08:24:34.078Z,7.87
2019-03-24T08:27:02.608Z,7.30
2019-03-24T08:29:31.040Z,7.87
2019-03-24T08:31:59.481Z,7.43
2019-03-24T08:34:28.882Z,7.20
2019-03-24T08:36:57.355Z,6.60
2019-03-24T08:39:25.795Z,6.77
2019-03-24T08:41:54.338Z,7.50
2019-03-24T08:44:22.791Z,6.23
2019-03-24T08:46:51.224Z,7.13
2019-03-24T08:49:19.812Z,6.57
2019-03-24T08:51:48.503Z,6.00
2019-03-24T08:54:17.382Z,6.80
2019-03-24T08:56:46.056Z,7.07
2019-03-24T08:59:14.637Z,6.97
2019-03-24T09:01:43.085Z,6.07
2019-03-24T09:04:11.681Z,6.50
2019-03-24T09:06:40.234Z,6.50
2019-03-24T09:09:08.717Z,6.27
2019-03-24T09:11:37.428Z,7.40
2019-03-24T09:14:06.182Z,6.70
2019-03-24T09:16:34.981Z,6.53
2019-03-24T09:19:03.593Z,7.47
2019-03-24T09:21:32.376Z,7.17
2019-03-24T09:24:01.177Z,6.60
2019-03-24T09:26:29.855Z,6.83
2019-03-24T09:28:59.356Z,6.73
2019-03-24T09:31:28.364Z,7.07
2019-03-24T09:33:58.440Z,7.23
2019-03-24T09:36:27.100Z,7.00
2019-03-24T09:38:55.649Z,6.60
2019-03-24T09:41:24.121Z,7.47
2019-03-24T09:43:52.697Z,6.73
2019-03-24T09:46:21.229Z,7.23
2019-03-24T09:48:50.571Z,7.53
2019-03-24T09:51:21.172Z,6.97
2019-03-24T09:53:49.802Z,7.03
2019-03-24T09:56:18.310Z,7.97
2019-03-24T09:58:46.977Z,7.20
2019-03-24T10:01:15.545Z,6.63
2019-03-24T10:03:44.038Z,6.47
2019-03-24T10:06:12.658Z,6.37
2019-03-24T10:08:47.036Z,6.53
2019-03-24T10:11:11.799Z,5.83
2019-03-24T10:13:40.503Z,6.20
2019-03-24T10:16:09.004Z,5.83
2019-03-24T10:18:37.547Z,5.37
2019-03-24T10:21:06.148Z,5.60
2019-03-24T10:23:34.748Z,5.27
2019-03-24T10:26:03.279Z,4.50
2019-03-24T10:28:31.978Z,5.30
2019-03-24T10:31:00.684Z,4.87
2019-03-24T10:33:29.236Z,5.00
2019-03-24T10:35:57.782Z,5.23
2019-03-24T10:38:26.579Z,5.97
2019-03-24T10:40:55.182Z,6.00
2019-03-24T10:43:24.347Z,6.33
2019-03-24T10:45:52.819Z,5.60
2019-03-24T10:48:21.532Z,5.70
2019-03-24T10:50:50.227Z,5.47
2019-03-24T10:53:18.902Z,5.20
2019-03-24T10:55:47.513Z,6.10
2019-03-24T10:58:16.076Z,6.73
2019-03-24T11:00:45.116Z,5.37
2019-03-24T11:03:13.795Z,6.17
2019-03-24T11:05:42.538Z,5.33
2019-03-24T11:08:11.267Z,5.90
2019-03-24T11:10:39.927Z,6.30
2019-03-24T11:13:11.501Z,5.93
2019-03-24T11:15:40.144Z,5.77
2019-03-24T11:18:08.798Z,5.77
2019-03-24T11:20:37.373Z,5.93
2019-03-24T11:23:06.000Z,6.80
2019-03-24T11:25:34.618Z,6.53
2019-03-24T11:28:03.245Z,5.87
2019-03-24T11:30:31.915Z,5.80
2019-03-24T11:33:00.385Z,5.93
2019-03-24T11:35:29.012Z,5.50
2019-03-24T11:37:58.211Z,5.97
2019-03-24T11:40:26.656Z,5.83
2019-03-24T11:42:55.199Z,5.93
2019-03-24T11:45:23.683Z,5.23
2019-03-24T11:47:52.464Z,5.27
2019-03-24T11:50:21.029Z,6.03
2019-03-24T11:52:49.751Z,5.83
2019-03-24T11:55:18.436Z,5.10
2019-03-24T11:57:47.074Z,5.40
2019-03-24T12:00:17.486Z,4.90
2019-03-24T12:02:46.291Z,5.03
2019-03-24T12:05:14.972Z,4.43
2019-03-24T12:07:43.623Z,4.70
2019-03-24T12:10:12.364Z,4.70
2019-03-24T12:12:40.841Z,4.67
2019-03-24T12:15:10.247Z,4.73
2019-03-24T12:17:39.942Z,5.13
2019-03-24T12:20:10.209Z,4.90
2019-03-24T12:22:38.921Z,4.17
2019-03-24T12:25:07.607Z,3.77
2019-03-24T12:27:36.202Z,3.57
2019-03-24T12:30:09.522Z,3.97
2019-03-24T12:32:38.068Z,4.10
2019-03-24T12:35:08.588Z,4.87
2019-03-24T12:37:37.169Z,5.77
2019-03-24T12:40:09.665Z,5.87
2019-03-24T12:42:38.819Z,5.60
2019-03-24T12:45:12.942Z,5.90
2019-03-24T12:47:43.122Z,5.83
2019-03-24T12:50:11.909Z,5.40
2019-03-24T12:52:40.451Z,5.53
2019-03-24T12:55:09.084Z,5.60
2019-03-24T12:57:37.697Z,5.10
2019-03-24T13:00:11.527Z,6.17
2019-03-24T13:02:40.183Z,5.73
2019-03-24T13:05:10.748Z,5.80
2019-03-24T13:07:39.522Z,5.87
2019-03-24T13:10:08.769Z,5.73
2019-03-24T13:12:37.236Z,5.90
2019-03-24T13:15:07.812Z,6.77
2019-03-24T13:17:36.477Z,5.97
2019-03-24T13:20:06.931Z,6.57
2019-03-24T13:22:35.584Z,6.80
2019-03-24T13:25:06.869Z,7.40
2019-03-24T13:27:35.447Z,6.90
2019-03-24T13:30:06.956Z,7.63
2019-03-24T13:32:35.553Z,7.00
2019-03-24T13:35:04.279Z,9.43
2019-03-24T13:37:32.798Z,8.00
2019-03-24T13:40:01.431Z,7.47
2019-03-24T13:42:30.122Z,8.70
2019-03-24T13:44:58.697Z,7.47
2019-03-24T13:47:27.282Z,8.33
2019-03-24T13:49:55.834Z,7.03
2019-03-24T13:52:25.273Z,6.30
2019-03-24T13:54:53.903Z,8.50
2019-03-24T13:57:22.455Z,9.00
2019-03-24T13:59:50.980Z,7.93
2019-03-24T14:02:19.602Z,7.50
2019-03-24T14:04:48.256Z,7.83
2019-03-24T14:07:16.840Z,7.80
2019-03-24T14:09:45.423Z,8.60
2019-03-24T14:12:14.008Z,8.37
2019-03-24T14:14:42.780Z,8.40
2019-03-24T14:17:11.316Z,7.97
2019-03-24T14:19:39.806Z,7.60
2019-03-24T14:22:08.495Z,7.77
2019-03-24T14:24:37.111Z,7.67
2019-03-24T14:27:06.350Z,5.93
2019-03-24T14:29:35.031Z,6.50
2019-03-24T14:32:03.635Z,6.40
2019-03-24T14:34:32.264Z,5.67
2019-03-24T14:37:00.797Z,6.23
2019-03-24T14:39:29.407Z,6.13
2019-03-24T14:41:58.088Z,6.77
2019-03-24T14:44:26.623Z,6.70
2019-03-24T14:46:55.082Z,6.37
2019-03-24T14:49:23.532Z,5.80
2019-03-24T14:51:52.044Z,5.67
2019-03-24T14:54:20.500Z,4.80
2019-03-24T14:56:48.919Z,5.30
2019-03-24T14:59:17.386Z,5.23
2019-03-24T15:01:45.867Z,5.67
2019-03-24T15:04:14.313Z,5.17
2019-03-24T15:06:42.745Z,4.60
2019-03-24T15:09:11.265Z,5.43
2019-03-24T15:11:39.706Z,5.47
2019-03-24T15:14:08.145Z,4.90
2019-03-24T15:16:36.583Z,5.13
2019-03-24T15:19:05.221Z,4.67
2019-03-24T15:21:33.669Z,4.17
2019-03-24T15:24:02.104Z,4.13
2019-03-24T15:26:30.635Z,3.90
2019-03-24T15:29:06.301Z,5.37
2019-03-24T15:31:30.592Z,4.40
2019-03-24T15:33:59.007Z,3.90
2019-03-24T15:36:27.490Z,3.20
2019-03-24T15:38:55.901Z,3.60
2019-03-24T15:41:24.346Z,3.57
2019-03-24T15:43:52.783Z,2.83
2019-03-24T15:46:21.218Z,2.93
2019-03-24T15:48:50.416Z,3.60
2019-03-24T15:51:19.028Z,3.60
2019-03-24T15:53:47.429Z,3.70
2019-03-24T15:56:15.864Z,3.37
2019-03-24T15:58:44.328Z,3.00
2019-03-24T16:01:13.154Z,3.20
2019-03-24T16:03:41.589Z,2.83
2019-03-24T16:06:10.306Z,2.87
2019-03-24T16:08:38.800Z,2.87
2019-03-24T16:11:07.274Z,2.80
2019-03-24T16:13:35.747Z,3.00
2019-03-24T16:16:04.264Z,2.57
2019-03-24T16:18:32.707Z,3.27
2019-03-24T16:21:01.166Z,3.40
2019-03-24T16:23:29.626Z,3.40
2019-03-24T16:25:58.051Z,3.70
2019-03-24T16:28:26.590Z,4.50
2019-03-24T16:30:55.085Z,4.67
2019-03-24T16:33:23.512Z,4.30
2019-03-24T16:35:52.037Z,3.97
2019-03-24T16:38:20.498Z,4.10
2019-03-24T16:40:48.967Z,3.60
2019-03-24T16:43:17.414Z,3.83
2019-03-24T16:45:47.299Z,3.07
2019-03-24T16:48:15.962Z,3.03
2019-03-24T16:50:46.085Z,3.07
2019-03-24T16:53:14.498Z,3.23
2019-03-24T16:55:42.939Z,3.20
2019-03-24T16:58:11.400Z,2.37
2019-03-24T17:00:39.897Z,3.00
2019-03-24T17:03:08.358Z,2.33
2019-03-24T17:05:36.940Z,2.50
2019-03-24T17:08:05.452Z,2.10
2019-03-24T17:10:33.925Z,2.03
2019-03-24T17:13:02.358Z,2.30
2019-03-24T17:15:30.821Z,2.20
2019-03-24T17:17:59.267Z,2.40
2019-03-24T17:20:27.774Z,1.90
2019-03-24T17:22:56.210Z,1.80
2019-03-24T17:25:24.667Z,1.87
2019-03-24T17:27:53.083Z,1.80
2019-03-24T17:30:21.700Z,2.07
2019-03-24T17:32:50.209Z,2.03
2019-03-24T17:35:18.687Z,2.23
2019-03-24T17:37:47.169Z,2.03
2019-03-24T17:40:15.657Z,1.80
2019-03-24T17:42:44.288Z,2.10
2019-03-24T17:45:13.880Z,2.37
2019-03-24T17:47:42.382Z,2.20
2019-03-24T17:50:12.290Z,1.97
2019-03-24T17:52:40.652Z,2.60
2019-03-24T17:55:09.665Z,2.00
2019-03-24T17:57:38.109Z,1.90
2019-03-24T18:00:16.208Z,2.30
2019-03-24T18:02:44.654Z,1.93
2019-03-24T18:05:15.018Z,1.97
2019-03-24T18:07:43.598Z,2.27
2019-03-24T18:10:12.369Z,2.37
2019-03-24T18:12:40.861Z,2.47
2019-03-24T18:15:11.354Z,2.50
2019-03-24T18:17:39.801Z,2.67
2019-03-24T18:20:09.260Z,2.40
2019-03-24T18:22:37.815Z,2.77
2019-03-24T18:25:08.214Z,2.50
2019-03-24T18:27:36.999Z,3.00
2019-03-24T18:30:09.212Z,2.67
2019-03-24T18:32:38.111Z,3.10
2019-03-24T18:35:12.475Z,2.90
2019-03-24T18:37:44.789Z,2.93
2019-03-24T18:40:15.227Z,3.23
2019-03-24T18:42:45.756Z,2.60
2019-03-24T18:45:19.666Z,3.30
2019-03-24T18:47:48.311Z,3.23
2019-03-24T18:50:17.041Z,2.70
2019-03-24T18:52:46.389Z,3.43
2019-03-24T18:55:17.501Z,3.13
2019-03-24T18:57:47.679Z,3.47
2019-03-24T19:00:17.137Z,3.60
2019-03-24T19:02:45.720Z,3.27
2019-03-24T19:05:14.665Z,3.23
2019-03-24T19:07:43.104Z,3.97
2019-03-24T19:10:12.908Z,3.57
2019-03-24T19:12:41.557Z,3.87
2019-03-24T19:15:12.649Z,4.07
2019-03-24T19:17:41.342Z,3.70
2019-03-24T19:20:10.433Z,3.70
2019-03-24T19:22:38.919Z,3.53
2019-03-24T19:25:09.035Z,4.03
2019-03-24T19:27:37.582Z,4.10
2019-03-24T19:30:18.075Z,4.40
2019-03-24T19:32:47.328Z,4.27
2019-03-24T19:35:16.614Z,4.60
2019-03-24T19:37:46.683Z,4.30
2019-03-24T19:40:32.255Z,5.57
2019-03-24T19:43:00.810Z,5.40
2019-03-24T19:45:29.347Z,5.17
2019-03-24T19:47:58.746Z,4.83
2019-03-24T19:50:27.218Z,5.13
2019-03-24T19:52:56.092Z,5.63
2019-03-24T19:55:25.286Z,5.60
2019-03-24T19:57:53.771Z,4.90
2019-03-24T20:00:22.237Z,5.43
2019-03-24T20:02:50.737Z,5.43
2019-03-24T20:05:19.207Z,4.80
2019-03-24T20:07:48.402Z,4.70
2019-03-24T20:10:17.142Z,4.90
2019-03-24T20:12:45.607Z,4.70
2019-03-24T20:15:14.174Z,4.67
2019-03-24T20:17:42.637Z,5.47
2019-03-24T20:20:11.367Z,5.47
2019-03-24T20:22:39.793Z,4.10
2019-03-24T20:25:08.403Z,4.47
2019-03-24T20:27:36.809Z,4.70
2019-03-24T20:30:08.815Z,4.30
2019-03-24T20:32:37.244Z,4.27
2019-03-24T20:35:07.812Z,4.53
2019-03-24T20:37:36.244Z,4.33
2019-03-24T20:40:06.390Z,4.33
2019-03-24T20:42:34.866Z,4.30
2019-03-24T20:45:03.628Z,4.03
2019-03-24T20:47:32.059Z,3.87
2019-03-24T20:50:00.554Z,4.17
2019-03-24T20:52:28.993Z,3.87
2019-03-24T20:54:57.616Z,4.30
2019-03-24T20:57:26.150Z,4.80
2019-03-24T20:59:54.649Z,4.63
2019-03-24T21:02:23.396Z,4.10
2019-03-24T21:04:51.824Z,4.50
2019-03-24T21:07:20.383Z,5.17
2019-03-24T21:09:48.867Z,4.50
2019-03-24T21:12:17.282Z,4.07
2019-03-24T21:14:45.745Z,4.40
2019-03-24T21:17:14.351Z,4.77
2019-03-24T21:19:42.842Z,5.57
2019-03-24T21:22:11.272Z,4.30
2019-03-24T21:24:39.841Z,4.80
2019-03-24T21:27:08.647Z,4.60
2019-03-24T21:29:37.106Z,5.07
2019-03-24T21:32:07.053Z,5.17
2019-03-24T21:34:35.558Z,5.60
2019-03-24T21:37:04.011Z,5.10
2019-03-24T21:39:32.528Z,4.80
2019-03-24T21:42:00.974Z,4.83
2019-03-24T21:44:29.429Z,5.20
2019-03-24T21:46:57.897Z,5.43
2019-03-24T21:49:26.625Z,4.93
2019-03-24T21:51:55.605Z,4.37
2019-03-24T21:54:24.444Z,4.30
2019-03-24T21:56:53.469Z,4.40
2019-03-24T21:59:22.050Z,4.77
2019-03-24T22:01:52.437Z,4.13
2019-03-24T22:04:20.858Z,4.07
2019-03-24T22:06:49.972Z,4.23
2019-03-24T22:09:18.476Z,4.53
2019-03-24T22:11:47.180Z,5.37
2019-03-24T22:14:16.539Z,4.43
2019-03-24T22:16:45.293Z,4.13
2019-03-24T22:19:14.047Z,4.63
2019-03-24T22:21:44.134Z,4.30
2019-03-24T22:24:12.584Z,5.10
2019-03-24T22:26:41.031Z,4.07
2019-03-24T22:29:09.539Z,4.97
2019-03-24T22:31:38.027Z,4.23
2019-03-24T22:34:06.469Z,4.37
2019-03-24T22:36:34.906Z,4.50
2019-03-24T22:39:04.534Z,4.63
2019-03-24T22:41:32.961Z,4.53
2019-03-24T22:44:01.441Z,4.03
2019-03-24T22:46:29.896Z,5.73
2019-03-24T22:48:58.324Z,4.57
2019-03-24T22:51:26.755Z,5.27
2019-03-24T22:54:03.144Z,4.17
2019-03-24T22:56:25.357Z,4.60
2019-03-24T22:58:53.971Z,5.13
2019-03-24T23:01:22.546Z,4.30
2019-03-24T23:03:51.081Z,4.80
2019-03-24T23:06:19.531Z,4.03
2019-03-24T23:08:47.970Z,4.37
2019-03-24T23:11:16.418Z,4.30
2019-03-24T23:13:44.851Z,3.80
2019-03-24T23:16:13.360Z,4.50
2019-03-24T23:18:41.830Z,4.03
2019-03-24T23:21:10.336Z,4.27
2019-03-24T23:23:38.815Z,4.13
2019-03-24T23:26:07.355Z,3.60
2019-03-24T23:28:35.818Z,3.80
2019-03-24T23:31:04.426Z,4.00
2019-03-24T23:33:32.880Z,3.87
2019-03-24T23:36:01.339Z,3.60
2019-03-24T23:38:29.778Z,3.77
2019-03-24T23:40:58.221Z,3.60
2019-03-24T23:43:26.679Z,3.87
2019-03-24T23:45:55.101Z,3.23
2019-03-24T23:48:23.550Z,3.40
2019-03-24T23:50:52.021Z,3.60
2019-03-24T23:53:20.441Z,3.93
2019-03-24T23:55:48.879Z,3.93
2019-03-24T23:58:17.347Z,4.27
